createdAt,value
2019-05-26T00:02:23.223Z,91.44
2019-05-26T00:04:54.233Z,91.92
2019-05-26T00:07:30.671Z,91.61
2019-05-26T00:09:57.540Z,91.73
2019-05-26T00:12:28.147Z,91.73
2019-05-26T00:14:59.764Z,91.61
2019-05-26T00:17:30.240Z,91.78
2019-05-26T00:20:00.834Z,91.61
2019-05-26T00:22:31.286Z,91.93
2019-05-26T00:25:01.790Z,92.32
2019-05-26T00:27:32.236Z,92.31
2019-05-26T00:30:03.002Z,92.32
2019-05-26T00:32:33.532Z,92.56
2019-05-26T00:35:04.075Z,92.29
2019-05-26T00:37:48.275Z,92.42
2019-05-26T00:40:08.382Z,92.52
2019-05-26T00:42:38.881Z,93.05
2019-05-26T00:45:09.858Z,92.90
2019-05-26T00:47:40.661Z,92.48
2019-05-26T00:50:12.120Z,92.42
2019-05-26T00:52:42.788Z,92.95
2019-05-26T00:55:13.511Z,92.97
2019-05-26T00:57:43.987Z,93.45
2019-05-26T01:00:17.452Z,93.58
2019-05-26T01:02:47.963Z,93.82
2019-05-26T01:05:18.576Z,93.67
2019-05-26T01:08:05.285Z,93.90
2019-05-26T01:10:21.408Z,93.99
2019-05-26T01:12:51.847Z,94.04
2019-05-26T01:15:22.602Z,93.97
2019-05-26T01:17:53.042Z,93.61
2019-05-26T01:20:23.984Z,93.21
2019-05-26T01:22:54.477Z,92.99
2019-05-26T01:25:25.128Z,93.03
2019-05-26T01:27:55.661Z,93.37
2019-05-26T01:30:37.376Z,93.37
2019-05-26T01:33:08.845Z,93.18
2019-05-26T01:35:41.811Z,93.64
2019-05-26T01:38:23.811Z,93.77
2019-05-26T01:40:46.987Z,93.58
2019-05-26T01:43:18.149Z,93.67
2019-05-26T01:45:48.635Z,93.77
2019-05-26T01:48:19.107Z,93.76
2019-05-26T01:50:49.615Z,94.06
2019-05-26T01:53:20.123Z,93.93
2019-05-26T01:55:50.662Z,94.25
2019-05-26T01:58:21.371Z,94.28
2019-05-26T02:00:51.910Z,93.76
2019-05-26T02:03:22.564Z,93.76
2019-05-26T02:05:53.128Z,93.88
2019-05-26T02:08:38.364Z,93.93
2019-05-26T02:10:55.808Z,93.82
2019-05-26T02:13:26.286Z,93.88
2019-05-26T02:15:56.800Z,93.96
2019-05-26T02:18:27.262Z,94.03
2019-05-26T02:20:57.574Z,94.35
2019-05-26T02:23:28.097Z,93.99
2019-05-26T02:25:58.584Z,94.31
2019-05-26T02:28:29.161Z,94.44
2019-05-26T02:30:59.699Z,94.33
2019-05-26T02:33:30.235Z,94.09
2019-05-26T02:36:00.861Z,94.28
2019-05-26T02:38:31.352Z,94.20
2019-05-26T02:41:01.849Z,94.25
2019-05-26T02:43:32.310Z,94.21
2019-05-26T02:46:02.816Z,94.12
2019-05-26T02:48:33.638Z,94.27
2019-05-26T02:51:04.133Z,94.10
2019-05-26T02:53:34.561Z,93.88
2019-05-26T02:56:05.676Z,93.96
2019-05-26T02:58:36.211Z,94.13
2019-05-26T03:01:06.973Z,94.24
2019-05-26T03:03:37.895Z,94.07
2019-05-26T03:06:09.436Z,94.20
2019-05-26T03:08:40.949Z,94.38
2019-05-26T03:11:13.653Z,94.28
2019-05-26T03:13:47.231Z,94.14
2019-05-26T03:16:21.421Z,94.29
2019-05-26T03:18:54.630Z,94.38
2019-05-26T03:21:27.902Z,94.35
2019-05-26T03:24:01.451Z,94.44
2019-05-26T03:26:31.933Z,94.35
2019-05-26T03:29:02.384Z,94.46
2019-05-26T03:31:32.984Z,94.31
2019-05-26T03:34:03.453Z,94.36
2019-05-26T03:36:33.900Z,94.54
2019-05-26T03:39:05.953Z,94.34
2019-05-26T03:41:36.849Z,94.18
2019-05-26T03:44:07.524Z,93.98
2019-05-26T03:46:38.000Z,94.28
2019-05-26T03:49:08.534Z,94.34
2019-05-26T03:51:39.108Z,94.37
2019-05-26T03:54:10.135Z,94.81
2019-05-26T03:56:40.646Z,94.75
2019-05-26T03:59:11.115Z,94.77
2019-05-26T04:01:41.669Z,95.02
2019-05-26T04:04:12.424Z,95.21
2019-05-26T04:06:43.171Z,95.06
2019-05-26T04:09:13.742Z,95.34
2019-05-26T04:11:46.224Z,95.61
2019-05-26T04:14:16.774Z,95.74
2019-05-26T04:16:47.235Z,95.92
2019-05-26T04:19:17.746Z,96.18
2019-05-26T04:21:48.286Z,95.98
2019-05-26T04:24:19.937Z,96.18
2019-05-26T04:26:50.447Z,96.33
2019-05-26T04:29:21.161Z,96.57
2019-05-26T04:31:51.947Z,97.08
2019-05-26T04:34:22.484Z,97.24
2019-05-26T04:36:52.981Z,97.33
2019-05-26T04:39:23.416Z,97.50
2019-05-26T04:41:54.200Z,97.58
2019-05-26T04:44:24.661Z,97.63
2019-05-26T04:46:55.138Z,97.66
2019-05-26T04:49:25.696Z,97.67
2019-05-26T04:51:56.152Z,97.70
2019-05-26T04:54:26.646Z,97.80
2019-05-26T04:56:57.332Z,97.92
2019-05-26T04:59:27.769Z,98.05
2019-05-26T05:01:58.318Z,98.18
2019-05-26T05:04:28.754Z,98.23
2019-05-26T05:06:59.253Z,97.91
2019-05-26T05:09:29.788Z,97.98
2019-05-26T05:12:00.306Z,97.92
2019-05-26T05:14:30.928Z,97.99
2019-05-26T05:17:01.411Z,98.12
2019-05-26T05:19:31.939Z,98.34
2019-05-26T05:22:02.469Z,98.27
2019-05-26T05:24:32.999Z,98.12
2019-05-26T05:27:03.517Z,98.22
2019-05-26T05:29:33.982Z,97.95
2019-05-26T05:32:04.550Z,97.69
2019-05-26T05:34:35.053Z,97.47
2019-05-26T05:37:05.932Z,97.42
2019-05-26T05:39:36.410Z,97.40
2019-05-26T05:42:07.159Z,97.40
2019-05-26T05:44:37.957Z,97.06
2019-05-26T05:47:08.685Z,96.99
2019-05-26T05:49:39.221Z,97.13
2019-05-26T05:52:09.702Z,97.02
2019-05-26T05:54:40.223Z,96.92
2019-05-26T05:57:10.720Z,96.76
2019-05-26T05:59:41.166Z,96.74
2019-05-26T06:02:11.779Z,96.96
2019-05-26T06:04:42.451Z,97.05
2019-05-26T06:07:13.125Z,97.12
2019-05-26T06:09:43.753Z,97.38
2019-05-26T06:12:14.224Z,97.25
2019-05-26T06:14:44.787Z,96.99
2019-05-26T06:17:15.425Z,96.76
2019-05-26T06:19:46.001Z,96.63
2019-05-26T06:22:16.518Z,96.51
2019-05-26T06:24:47.124Z,95.93
2019-05-26T06:27:17.633Z,95.67
2019-05-26T06:29:58.338Z,95.63
2019-05-26T06:32:20.451Z,95.41
2019-05-26T06:34:50.998Z,94.97
2019-05-26T06:37:21.562Z,94.51
2019-05-26T06:39:52.048Z,94.20
2019-05-26T06:42:22.979Z,92.58
2019-05-26T06:44:54.222Z,92.32
2019-05-26T06:47:24.799Z,92.25
2019-05-26T06:49:55.399Z,91.66
2019-05-26T06:52:25.874Z,91.48
2019-05-26T06:54:56.391Z,89.67
2019-05-26T06:57:26.988Z,90.89
2019-05-26T06:59:57.466Z,91.29
2019-05-26T07:02:27.931Z,91.76
2019-05-26T07:04:58.361Z,92.10
2019-05-26T07:07:28.835Z,92.16
2019-05-26T07:09:59.522Z,91.76
2019-05-26T07:12:29.979Z,91.58
2019-05-26T07:15:00.457Z,91.03
2019-05-26T07:17:31.128Z,91.48
2019-05-26T07:20:01.686Z,90.80
2019-05-26T07:22:32.242Z,90.28
2019-05-26T07:25:02.740Z,90.35
2019-05-26T07:27:33.829Z,90.10
2019-05-26T07:30:04.539Z,89.75
2019-05-26T07:32:34.976Z,89.49
2019-05-26T07:35:05.536Z,89.30
2019-05-26T07:37:36.078Z,89.17
2019-05-26T07:40:07.109Z,88.94
2019-05-26T07:42:37.563Z,89.13
2019-05-26T07:45:09.314Z,88.61
2019-05-26T07:47:39.905Z,87.79
2019-05-26T07:50:11.096Z,87.52
2019-05-26T07:52:41.568Z,86.54
2019-05-26T07:55:12.577Z,86.92
2019-05-26T07:57:43.033Z,87.27
2019-05-26T08:00:14.188Z,86.46
2019-05-26T08:02:44.642Z,86.07
2019-05-26T08:05:15.192Z,85.63
2019-05-26T08:07:45.682Z,85.50
2019-05-26T08:10:18.613Z,84.97
2019-05-26T08:12:49.064Z,84.43
2019-05-26T08:15:20.205Z,84.20
2019-05-26T08:17:50.785Z,84.79
2019-05-26T08:20:21.965Z,83.62
2019-05-26T08:22:52.404Z,83.37
2019-05-26T08:25:22.865Z,83.02
2019-05-26T08:27:53.341Z,81.08
2019-05-26T08:30:23.954Z,80.59
2019-05-26T08:32:54.559Z,80.31
2019-05-26T08:35:25.213Z,79.87
2019-05-26T08:37:55.708Z,79.87
2019-05-26T08:40:26.148Z,80.01
2019-05-26T08:42:56.830Z,79.85
2019-05-26T08:45:27.337Z,79.45
2019-05-26T08:47:58.206Z,78.73
2019-05-26T08:50:28.602Z,76.77
2019-05-26T08:52:59.213Z,76.31
2019-05-26T08:55:29.628Z,76.03
2019-05-26T08:58:00.077Z,75.75
2019-05-26T09:00:30.846Z,74.87
2019-05-26T09:03:01.744Z,75.23
2019-05-26T09:05:32.314Z,76.33
2019-05-26T09:08:03.964Z,76.39
2019-05-26T09:10:34.449Z,75.87
2019-05-26T09:13:05.454Z,75.98
2019-05-26T09:15:35.970Z,76.17
2019-05-26T09:18:06.450Z,76.26
2019-05-26T09:20:36.941Z,76.10
2019-05-26T09:23:07.528Z,76.05
2019-05-26T09:25:38.154Z,75.87
2019-05-26T09:28:08.662Z,75.28
2019-05-26T09:30:39.138Z,75.77
2019-05-26T09:33:09.589Z,74.94
2019-05-26T09:35:40.065Z,75.07
2019-05-26T09:38:10.559Z,74.47
2019-05-26T09:40:42.207Z,74.26
2019-05-26T09:43:16.179Z,73.52
2019-05-26T09:45:45.065Z,72.90
2019-05-26T09:48:15.535Z,73.44
2019-05-26T09:50:45.982Z,72.34
2019-05-26T09:53:16.515Z,72.03
2019-05-26T09:55:47.010Z,72.48
2019-05-26T09:58:17.512Z,72.46
2019-05-26T10:00:48.019Z,71.47
2019-05-26T10:03:18.416Z,71.87
2019-05-26T10:05:48.888Z,72.17
2019-05-26T10:08:19.395Z,72.10
2019-05-26T10:10:49.920Z,72.38
2019-05-26T10:13:31.313Z,72.04
2019-05-26T10:15:52.755Z,72.30
2019-05-26T10:18:23.234Z,72.05
2019-05-26T10:20:53.729Z,71.17
2019-05-26T10:23:24.189Z,70.66
2019-05-26T10:25:55.351Z,70.70
2019-05-26T10:28:25.817Z,70.81
2019-05-26T10:30:56.725Z,70.96
2019-05-26T10:33:27.370Z,70.93
2019-05-26T10:35:58.021Z,70.85
2019-05-26T10:38:28.573Z,71.43
2019-05-26T10:40:59.001Z,72.12
2019-05-26T10:43:29.682Z,71.82
2019-05-26T10:46:00.399Z,71.49
2019-05-26T10:48:31.344Z,71.75
2019-05-26T10:51:01.789Z,71.13
2019-05-26T10:53:32.285Z,70.48
2019-05-26T10:56:02.931Z,70.47
2019-05-26T10:58:33.474Z,70.54
2019-05-26T11:01:04.282Z,68.21
2019-05-26T11:03:34.874Z,68.43
2019-05-26T11:06:05.606Z,69.19
2019-05-26T11:08:36.286Z,69.18
2019-05-26T11:11:06.797Z,69.45
2019-05-26T11:13:40.610Z,69.44
2019-05-26T11:16:09.519Z,69.29
2019-05-26T11:18:40.014Z,69.32
2019-05-26T11:21:12.546Z,69.31
2019-05-26T11:23:42.666Z,69.66
2019-05-26T11:26:13.095Z,69.25
2019-05-26T11:28:43.600Z,69.41
2019-05-26T11:31:14.066Z,70.08
2019-05-26T11:33:44.613Z,69.08
2019-05-26T11:36:15.095Z,69.04
2019-05-26T11:38:45.916Z,68.32
2019-05-26T11:41:16.546Z,67.72
2019-05-26T11:43:46.983Z,68.90
2019-05-26T11:46:17.618Z,68.59
2019-05-26T11:48:48.183Z,69.12
2019-05-26T11:51:18.736Z,69.07
2019-05-26T11:53:49.252Z,68.92
2019-05-26T11:56:19.866Z,67.78
2019-05-26T11:58:50.436Z,67.32
2019-05-26T12:01:23.162Z,67.93
2019-05-26T12:03:53.438Z,68.23
2019-05-26T12:06:23.846Z,68.02
2019-05-26T12:08:54.310Z,68.41
2019-05-26T12:11:24.811Z,68.51
2019-05-26T12:13:55.250Z,68.36
2019-05-26T12:16:28.772Z,68.37
2019-05-26T12:18:58.072Z,68.00
2019-05-26T12:21:28.558Z,67.03
2019-05-26T12:23:59.073Z,68.25
2019-05-26T12:26:29.573Z,68.25
2019-05-26T12:29:00.130Z,67.87
2019-05-26T12:31:30.716Z,68.11
2019-05-26T12:34:01.422Z,68.04
2019-05-26T12:36:32.103Z,66.88
2019-05-26T12:39:02.674Z,67.59
2019-05-26T12:41:37.041Z,67.84
2019-05-26T12:44:06.171Z,67.64
2019-05-26T12:46:36.847Z,68.05
2019-05-26T12:49:07.473Z,67.15
2019-05-26T12:51:39.238Z,67.42
2019-05-26T12:54:09.928Z,67.69
2019-05-26T12:56:40.544Z,66.77
2019-05-26T12:59:11.112Z,66.92
2019-05-26T13:01:41.584Z,66.54
2019-05-26T13:04:12.226Z,66.96
2019-05-26T13:06:43.707Z,67.61
2019-05-26T13:09:15.607Z,67.58
2019-05-26T13:11:47.780Z,67.08
2019-05-26T13:14:18.314Z,66.91
2019-05-26T13:16:50.147Z,66.77
2019-05-26T13:19:21.529Z,66.51
2019-05-26T13:21:53.579Z,65.87
2019-05-26T13:24:24.514Z,66.56
2019-05-26T13:26:55.428Z,67.54
2019-05-26T13:29:26.358Z,66.83
2019-05-26T13:31:56.985Z,65.54
2019-05-26T13:34:27.655Z,65.22
2019-05-26T13:36:58.427Z,64.80
2019-05-26T13:39:28.936Z,64.45
2019-05-26T13:41:59.608Z,64.64
2019-05-26T13:44:30.266Z,65.15
2019-05-26T13:47:01.129Z,64.42
2019-05-26T13:49:31.688Z,64.20
2019-05-26T13:52:02.536Z,63.37
2019-05-26T13:54:33.448Z,62.71
2019-05-26T13:57:04.164Z,61.80
2019-05-26T13:59:36.068Z,61.97
2019-05-26T14:02:07.095Z,62.40
2019-05-26T14:04:37.721Z,62.14
2019-05-26T14:07:09.825Z,61.90
2019-05-26T14:09:40.621Z,61.55
2019-05-26T14:12:11.210Z,60.77
2019-05-26T14:14:43.432Z,61.26
2019-05-26T14:17:15.478Z,61.31
2019-05-26T14:19:49.317Z,61.25
2019-05-26T14:22:20.142Z,61.46
2019-05-26T14:24:54.259Z,61.36
2019-05-26T14:27:23.102Z,62.51
2019-05-26T14:29:53.849Z,62.28
2019-05-26T14:32:24.881Z,62.84
2019-05-26T14:34:55.554Z,63.54
2019-05-26T14:37:26.510Z,63.45
2019-05-26T14:39:57.620Z,63.54
2019-05-26T14:42:28.223Z,63.87
2019-05-26T14:44:59.013Z,63.52
2019-05-26T14:47:29.572Z,63.35
2019-05-26T14:50:01.335Z,63.68
2019-05-26T14:52:31.965Z,62.94
2019-05-26T14:55:02.816Z,63.51
2019-05-26T14:57:33.435Z,62.84
2019-05-26T15:00:04.271Z,63.05
2019-05-26T15:02:36.004Z,63.37
2019-05-26T15:05:06.588Z,63.90
2019-05-26T15:07:37.461Z,64.07
2019-05-26T15:10:09.138Z,63.51
2019-05-26T15:12:40.036Z,62.45
2019-05-26T15:15:11.154Z,62.33
2019-05-26T15:17:41.867Z,63.10
2019-05-26T15:20:13.202Z,64.51
2019-05-26T15:22:43.774Z,64.84
2019-05-26T15:25:14.530Z,64.35
2019-05-26T15:27:46.692Z,63.98
2019-05-26T15:30:17.712Z,64.42
2019-05-26T15:32:48.491Z,65.32
2019-05-26T15:35:19.597Z,64.67
2019-05-26T15:37:50.192Z,65.36
2019-05-26T15:40:20.920Z,65.27
2019-05-26T15:42:51.494Z,65.58
2019-05-26T15:45:22.267Z,65.41
2019-05-26T15:47:53.107Z,65.70
2019-05-26T15:50:23.710Z,65.62
2019-05-26T15:52:54.597Z,65.16
2019-05-26T15:55:25.452Z,65.33
2019-05-26T15:57:56.182Z,65.26
2019-05-26T16:00:26.782Z,65.07
2019-05-26T16:02:57.633Z,65.07
2019-05-26T16:05:28.239Z,65.75
2019-05-26T16:07:58.889Z,66.15
2019-05-26T16:10:29.464Z,66.51
2019-05-26T16:12:59.910Z,66.80
2019-05-26T16:15:30.503Z,66.91
2019-05-26T16:18:01.001Z,67.18
2019-05-26T16:20:31.831Z,67.54
2019-05-26T16:23:02.353Z,67.50
2019-05-26T16:25:33.597Z,67.34
2019-05-26T16:28:04.170Z,67.91
2019-05-26T16:30:34.838Z,67.58
2019-05-26T16:33:05.581Z,68.04
2019-05-26T16:35:36.096Z,68.21
2019-05-26T16:38:06.757Z,68.35
2019-05-26T16:40:37.255Z,68.41
2019-05-26T16:43:07.685Z,68.81
2019-05-26T16:45:38.539Z,68.68
2019-05-26T16:48:09.023Z,68.54
2019-05-26T16:50:39.552Z,68.72
2019-05-26T16:53:10.098Z,68.89
2019-05-26T16:55:40.542Z,68.97
2019-05-26T16:58:11.479Z,69.07
2019-05-26T17:00:42.004Z,69.00
2019-05-26T17:03:12.597Z,69.38
2019-05-26T17:05:43.062Z,69.40
2019-05-26T17:08:13.562Z,69.76
2019-05-26T17:10:44.445Z,69.66
2019-05-26T17:13:15.010Z,69.67
2019-05-26T17:15:45.894Z,70.60
2019-05-26T17:18:16.463Z,70.50
2019-05-26T17:20:47.133Z,70.87
2019-05-26T17:23:17.712Z,71.35
2019-05-26T17:25:48.441Z,72.01
2019-05-26T17:28:19.001Z,72.53
2019-05-26T17:30:49.474Z,72.86
2019-05-26T17:33:20.069Z,73.05
2019-05-26T17:35:50.656Z,73.13
2019-05-26T17:38:21.386Z,72.88
2019-05-26T17:40:51.897Z,73.13
2019-05-26T17:43:22.619Z,73.69
2019-05-26T17:45:53.162Z,73.72
2019-05-26T17:48:23.672Z,72.93
2019-05-26T17:50:54.275Z,73.08
2019-05-26T17:53:24.819Z,73.20
2019-05-26T17:55:55.443Z,72.76
2019-05-26T17:58:25.981Z,72.90
2019-05-26T18:00:56.577Z,73.25
2019-05-26T18:03:27.069Z,73.81
2019-05-26T18:05:57.535Z,73.71
2019-05-26T18:08:28.045Z,73.66
2019-05-26T18:10:58.757Z,73.77
2019-05-26T18:13:29.412Z,74.22
2019-05-26T18:15:59.918Z,74.96
2019-05-26T18:18:30.483Z,76.19
2019-05-26T18:21:01.391Z,76.57
2019-05-26T18:23:31.919Z,77.96
2019-05-26T18:26:02.405Z,78.77
2019-05-26T18:28:32.937Z,79.93
2019-05-26T18:31:03.706Z,80.21
2019-05-26T18:33:34.939Z,80.08
2019-05-26T18:36:05.457Z,80.19
2019-05-26T18:38:35.937Z,82.43
2019-05-26T18:41:06.518Z,84.13
2019-05-26T18:43:37.019Z,85.94
2019-05-26T18:46:07.449Z,88.48
2019-05-26T18:48:37.883Z,89.94
2019-05-26T18:51:08.359Z,91.03
2019-05-26T18:53:38.847Z,91.26
2019-05-26T18:56:09.332Z,91.53
2019-05-26T18:58:39.936Z,91.55
2019-05-26T19:01:10.853Z,91.72
2019-05-26T19:03:41.330Z,91.42
2019-05-26T19:06:11.894Z,91.58
2019-05-26T19:08:42.404Z,91.86
2019-05-26T19:11:12.858Z,91.45
2019-05-26T19:13:43.332Z,91.47
2019-05-26T19:16:13.831Z,91.92
2019-05-26T19:18:44.328Z,92.50
2019-05-26T19:21:15.318Z,93.59
2019-05-26T19:23:45.995Z,96.18
2019-05-26T19:26:16.425Z,97.07
2019-05-26T19:28:46.888Z,98.00
2019-05-26T19:31:17.347Z,98.40
2019-05-26T19:33:47.961Z,99.12
2019-05-26T19:36:18.459Z,100.26
2019-05-26T19:38:49.104Z,101.14
2019-05-26T19:41:20.099Z,102.33
2019-05-26T19:43:51.021Z,103.44
2019-05-26T19:46:22.204Z,103.76
2019-05-26T19:48:52.740Z,105.29
2019-05-26T19:51:23.309Z,105.33
2019-05-26T19:53:53.927Z,106.97
2019-05-26T19:56:24.747Z,106.61
2019-05-26T19:58:55.729Z,107.00
2019-05-26T20:01:26.491Z,108.40
2019-05-26T20:03:57.334Z,108.09
2019-05-26T20:06:28.105Z,110.69
2019-05-26T20:08:58.650Z,109.83
2019-05-26T20:11:29.094Z,109.70
2019-05-26T20:14:00.419Z,109.85
2019-05-26T20:16:31.110Z,110.36
2019-05-26T20:19:01.998Z,110.57
2019-05-26T20:21:35.050Z,110.41
2019-05-26T20:24:06.378Z,110.69
2019-05-26T20:26:37.482Z,110.31
2019-05-26T20:29:09.864Z,109.54
2019-05-26T20:31:54.993Z,109.84
2019-05-26T20:34:25.876Z,111.19
2019-05-26T20:36:56.921Z,110.41
2019-05-26T20:39:27.697Z,110.12
2019-05-26T20:41:58.322Z,110.41
2019-05-26T20:44:28.977Z,109.79
2019-05-26T20:46:59.824Z,109.92
2019-05-26T20:49:44.339Z,110.34
2019-05-26T20:52:04.389Z,110.66
2019-05-26T20:54:35.293Z,110.44
2019-05-26T20:57:06.039Z,110.68
2019-05-26T20:59:37.359Z,110.50
2019-05-26T21:02:08.173Z,110.77
2019-05-26T21:04:38.881Z,110.60
2019-05-26T21:07:09.964Z,110.50
2019-05-26T21:09:40.578Z,110.12
2019-05-26T21:12:12.046Z,110.05
2019-05-26T21:14:42.775Z,111.02
2019-05-26T21:17:13.655Z,110.43
2019-05-26T21:19:44.430Z,110.79
2019-05-26T21:22:15.220Z,110.44
2019-05-26T21:24:45.886Z,110.60
2019-05-26T21:27:16.607Z,111.05
2019-05-26T21:29:47.105Z,111.24
2019-05-26T21:32:17.752Z,111.28
2019-05-26T21:34:48.859Z,110.79
2019-05-26T21:37:19.753Z,111.18
2019-05-26T21:39:50.490Z,111.34
2019-05-26T21:42:21.031Z,111.08
2019-05-26T21:44:53.375Z,110.82
2019-05-26T21:47:24.721Z,110.92
2019-05-26T21:49:55.596Z,111.02
2019-05-26T21:52:26.115Z,110.29
2019-05-26T21:54:56.717Z,110.38
2019-05-26T21:57:27.355Z,111.24
2019-05-26T21:59:57.860Z,110.99
2019-05-26T22:02:28.445Z,110.60
2019-05-26T22:04:59.034Z,110.93
2019-05-26T22:07:30.033Z,111.07
2019-05-26T22:10:00.559Z,110.93
2019-05-26T22:12:31.059Z,111.05
2019-05-26T22:15:01.547Z,110.56
2019-05-26T22:17:32.169Z,110.09
2019-05-26T22:20:03.559Z,110.86
2019-05-26T22:22:34.043Z,109.99
2019-05-26T22:25:04.962Z,109.67
2019-05-26T22:27:35.787Z,110.27
2019-05-26T22:30:07.090Z,110.82
2019-05-26T22:32:37.936Z,111.16
2019-05-26T22:35:09.747Z,110.73
2019-05-26T22:37:40.213Z,109.90
2019-05-26T22:40:12.065Z,108.96
2019-05-26T22:42:42.756Z,108.71
2019-05-26T22:45:13.747Z,108.38
2019-05-26T22:47:44.242Z,109.09
2019-05-26T22:50:14.870Z,108.60
2019-05-26T22:52:45.654Z,107.51
2019-05-26T22:55:17.775Z,107.18
2019-05-26T22:57:48.305Z,106.80
2019-05-26T23:00:19.730Z,107.59
2019-05-26T23:02:50.275Z,107.55
2019-05-26T23:05:20.743Z,107.65
2019-05-26T23:07:51.270Z,107.51
2019-05-26T23:10:21.931Z,107.67
2019-05-26T23:12:52.520Z,107.70
2019-05-26T23:15:23.236Z,108.25
2019-05-26T23:17:53.912Z,108.19
2019-05-26T23:20:24.585Z,107.71
2019-05-26T23:22:55.049Z,107.51
2019-05-26T23:25:25.683Z,107.22
2019-05-26T23:27:56.400Z,106.39
2019-05-26T23:30:27.020Z,106.30
2019-05-26T23:32:57.516Z,106.05
2019-05-26T23:35:27.949Z,106.51
2019-05-26T23:37:58.415Z,106.25
2019-05-26T23:40:28.969Z,105.49
2019-05-26T23:42:59.424Z,105.80
2019-05-26T23:45:29.923Z,105.68
2019-05-26T23:48:00.760Z,105.68
2019-05-26T23:50:31.213Z,105.84
2019-05-26T23:53:01.683Z,105.73
2019-05-26T23:55:32.215Z,106.74
2019-05-26T23:58:02.750Z,106.65
